Holland, Nebraska
Current Conditions -  °F | °C
As of 3:54 PM on Saturday 25 Oct 2014 (Local Time) from KLNK Reporting Station
Clear Clear  
Wind Chill: 23°   Ceiling: Unl
Heat Index: 23°   Visibility: 10mi
Dew Point:   Wind: 9mph
Humidity: 35%   Direction: 60°ENE
Pressure: 30.07"   Gusts: NA
Location:  40.6166°N, 96.617°W
Report Text: KLNK 252054Z 06008KT 10SM CLR 23/07 A3007 RMK AO2 SLP178 T02330072 56016 $
Loading
Personal Weather Stations






























Interactive Weather Map
Tropical Storm Tracking
New forecast layout! Learn more

10-Day Weather Forecast

Advertisements
Track Severe Weather on mobile